createdAt,value
2024-01-17T00:00:14.250Z,50.885658
2024-01-17T00:01:14.224Z,50.885635
2024-01-17T00:02:14.161Z,50.885639
2024-01-17T00:03:14.252Z,50.885651
2024-01-17T00:04:14.134Z,50.885647
2024-01-17T00:05:14.134Z,50.885654
2024-01-17T00:06:14.193Z,50.885582
2024-01-17T00:07:14.230Z,50.885605
2024-01-17T00:08:14.118Z,50.885551
2024-01-17T00:09:14.112Z,50.885651
2024-01-17T00:10:14.086Z,50.885658
2024-01-17T00:11:14.120Z,50.885654
2024-01-17T00:12:14.181Z,50.885475
2024-01-17T00:13:14.063Z,50.885609
2024-01-17T00:14:14.082Z,50.885563
2024-01-17T00:15:14.072Z,50.885567
2024-01-17T00:16:14.075Z,50.885578
2024-01-17T00:17:14.082Z,50.885555
2024-01-17T00:18:14.144Z,50.885639
2024-01-17T00:19:14.222Z,50.885574
2024-01-17T00:20:14.043Z,50.885479
2024-01-17T00:21:14.013Z,50.885620
2024-01-17T00:22:14.036Z,50.885605
2024-01-17T00:23:14.036Z,50.885601
2024-01-17T00:24:14.027Z,50.885715
2024-01-17T00:25:13.997Z,50.885605
2024-01-17T00:26:13.991Z,50.885647
2024-01-17T00:27:14.005Z,50.885632
2024-01-17T00:28:14.019Z,50.885719
2024-01-17T00:29:13.986Z,50.885681
2024-01-17T00:30:14.101Z,50.885616
2024-01-17T00:31:14.000Z,50.885586
2024-01-17T00:32:13.990Z,50.885647
2024-01-17T00:33:14.088Z,50.885574
2024-01-17T00:34:14.090Z,50.885632
2024-01-17T00:35:13.992Z,50.885651
2024-01-17T00:36:14.026Z,50.885651
2024-01-17T00:37:13.957Z,50.885628
2024-01-17T00:38:13.989Z,50.885620
2024-01-17T00:39:14.030Z,50.885578
2024-01-17T00:40:13.927Z,50.885624
2024-01-17T00:41:13.936Z,50.885612
2024-01-17T00:42:13.945Z,50.885559
2024-01-17T00:43:13.973Z,50.885662
2024-01-17T00:44:13.930Z,50.885639
2024-01-17T00:45:13.992Z,50.885628
2024-01-17T00:46:13.918Z,50.885651
2024-01-17T00:47:14.058Z,50.885651
2024-01-17T00:48:13.978Z,50.885605
2024-01-17T00:49:13.909Z,50.885639
2024-01-17T00:50:13.873Z,50.885708
2024-01-17T00:51:13.986Z,50.885712
2024-01-17T00:52:13.887Z,50.885700
2024-01-17T00:53:13.873Z,50.885628
2024-01-17T00:54:13.873Z,50.885674
2024-01-17T00:55:13.869Z,50.885635
2024-01-17T00:56:13.829Z,50.885647
2024-01-17T00:57:13.836Z,50.885647
2024-01-17T00:58:13.840Z,50.885708
2024-01-17T00:59:13.871Z,50.885815
2024-01-17T01:00:13.841Z,50.885590
2024-01-17T01:01:13.876Z,50.885632
2024-01-17T01:02:13.811Z,50.885380
2024-01-17T01:03:13.886Z,50.885410
2024-01-17T01:04:13.854Z,50.885658
2024-01-17T01:05:13.812Z,50.885689
2024-01-17T01:06:13.810Z,50.885620
2024-01-17T01:07:13.885Z,50.885647
2024-01-17T01:08:13.807Z,50.885632
2024-01-17T01:09:13.978Z,50.885548
2024-01-17T01:10:13.791Z,50.885658
2024-01-17T01:11:13.796Z,50.885620
2024-01-17T01:12:13.804Z,50.885754
2024-01-17T01:13:13.819Z,50.885609
2024-01-17T01:14:13.791Z,50.885658
2024-01-17T01:15:13.792Z,50.885632
2024-01-17T01:16:13.758Z,50.885567
2024-01-17T01:17:13.732Z,50.885548
2024-01-17T01:18:13.936Z,50.885574
2024-01-17T01:19:13.853Z,50.885536
2024-01-17T01:20:13.744Z,50.885509
2024-01-17T01:21:13.722Z,50.885674
2024-01-17T01:22:13.705Z,50.885544
2024-01-17T01:23:13.816Z,50.885601
2024-01-17T01:24:13.748Z,50.885639
2024-01-17T01:25:13.716Z,50.885643
2024-01-17T01:26:13.703Z,50.885658
2024-01-17T01:27:13.792Z,50.885651
2024-01-17T01:28:13.728Z,50.885628
2024-01-17T01:29:13.683Z,50.885609
2024-01-17T01:30:13.809Z,50.885654
2024-01-17T01:31:13.716Z,50.885559
2024-01-17T01:32:13.657Z,50.885548
2024-01-17T01:33:13.765Z,50.885582
2024-01-17T01:34:16.327Z,50.885662
2024-01-17T01:35:14.710Z,50.885601
2024-01-17T01:36:13.710Z,50.885647
2024-01-17T01:37:13.648Z,50.885670
2024-01-17T01:38:13.657Z,50.885616
2024-01-17T01:39:13.750Z,50.885593
2024-01-17T01:40:13.665Z,50.885647
2024-01-17T01:41:13.677Z,50.885639
2024-01-17T01:42:13.698Z,50.885609
2024-01-17T01:43:13.636Z,50.885651
2024-01-17T01:44:13.636Z,50.885643
2024-01-17T01:45:13.694Z,50.885658
2024-01-17T01:46:13.640Z,50.885670
2024-01-17T01:47:13.625Z,50.885654
2024-01-17T01:48:13.685Z,50.885639
2024-01-17T01:49:13.817Z,50.885639
2024-01-17T01:50:13.619Z,50.885654
2024-01-17T01:51:13.647Z,50.885632
2024-01-17T01:52:13.576Z,50.885658
2024-01-17T01:53:13.580Z,50.885654
2024-01-17T01:54:13.635Z,50.885651
2024-01-17T01:55:13.682Z,50.885643
2024-01-17T01:56:13.583Z,50.885643
2024-01-17T01:57:13.614Z,50.885647
2024-01-17T01:58:13.543Z,50.885635
2024-01-17T01:59:13.549Z,50.885632
2024-01-17T02:00:13.598Z,50.885620
2024-01-17T02:01:13.605Z,50.885662
2024-01-17T02:02:13.561Z,50.885651
2024-01-17T02:03:13.588Z,50.885654
2024-01-17T02:04:13.614Z,50.885578
2024-01-17T02:05:13.590Z,50.885612
2024-01-17T02:06:13.600Z,50.885620
2024-01-17T02:07:13.521Z,50.885601
2024-01-17T02:08:13.534Z,50.885647
2024-01-17T02:09:13.524Z,50.885620
2024-01-17T02:10:13.521Z,50.885651
2024-01-17T02:11:13.608Z,50.885559
2024-01-17T02:12:13.549Z,50.885624
2024-01-17T02:13:13.504Z,50.885616
2024-01-17T02:14:13.501Z,50.885674
2024-01-17T02:15:13.546Z,50.885654
2024-01-17T02:16:13.501Z,50.885670
2024-01-17T02:17:13.474Z,50.885696
2024-01-17T02:18:13.533Z,50.885609
2024-01-17T02:19:13.495Z,50.885609
2024-01-17T02:20:13.497Z,50.885647
2024-01-17T02:21:13.542Z,50.885651
2024-01-17T02:22:13.442Z,50.885632
2024-01-17T02:23:13.449Z,50.885609
2024-01-17T02:24:13.452Z,50.885612
2024-01-17T02:25:13.425Z,50.885624
2024-01-17T02:26:13.447Z,50.885548
2024-01-17T02:27:13.550Z,50.885475
2024-01-17T02:28:13.433Z,50.885620
2024-01-17T02:29:13.427Z,50.885628
2024-01-17T02:30:13.542Z,50.885590
2024-01-17T02:31:13.508Z,50.885506
2024-01-17T02:32:13.372Z,50.885532
2024-01-17T02:33:13.506Z,50.885548
2024-01-17T02:34:13.589Z,50.885780
2024-01-17T02:35:13.392Z,50.885757
2024-01-17T02:36:13.538Z,50.885647
2024-01-17T02:37:13.359Z,50.885715
2024-01-17T02:38:13.352Z,50.885750
2024-01-17T02:39:13.460Z,50.885670
2024-01-17T02:40:13.391Z,50.885693
2024-01-17T02:41:13.369Z,50.885674
2024-01-17T02:42:13.483Z,50.885685
2024-01-17T02:43:13.346Z,50.885582
2024-01-17T02:44:13.346Z,50.885715
2024-01-17T02:45:13.418Z,50.885612
2024-01-17T02:46:13.337Z,50.885597
2024-01-17T02:47:13.336Z,50.885593
2024-01-17T02:48:13.391Z,50.885586
2024-01-17T02:49:13.377Z,50.885582
2024-01-17T02:50:13.306Z,50.885586
2024-01-17T02:51:13.374Z,50.885685
2024-01-17T02:52:13.342Z,50.885590
2024-01-17T02:53:13.304Z,50.885521
2024-01-17T02:54:13.289Z,50.885609
2024-01-17T02:55:13.300Z,50.885662
2024-01-17T02:56:13.282Z,50.885513
2024-01-17T02:57:13.350Z,50.885593
2024-01-17T02:58:13.301Z,50.885578
2024-01-17T02:59:13.357Z,50.885506
2024-01-17T03:00:13.349Z,50.885418
2024-01-17T03:01:13.310Z,50.885353
2024-01-17T03:02:13.254Z,50.885536
2024-01-17T03:03:13.349Z,50.885670
2024-01-17T03:04:13.251Z,50.885654
2024-01-17T03:05:13.278Z,50.885635
2024-01-17T03:06:13.377Z,50.885620
2024-01-17T03:07:13.275Z,50.885624
2024-01-17T03:08:13.231Z,50.885551
2024-01-17T03:09:13.313Z,50.885281
2024-01-17T03:10:13.261Z,50.885239
2024-01-17T03:11:13.237Z,50.885521
2024-01-17T03:12:13.243Z,50.885597
2024-01-17T03:13:13.220Z,50.885548
2024-01-17T03:14:13.208Z,50.885517
2024-01-17T03:15:13.310Z,50.885563
2024-01-17T03:16:13.217Z,50.885502
2024-01-17T03:17:13.201Z,50.885593
2024-01-17T03:18:13.284Z,50.885494
2024-01-17T03:19:13.361Z,50.885479
2024-01-17T03:20:13.167Z,50.885521
2024-01-17T03:21:13.198Z,50.885437
2024-01-17T03:22:13.200Z,50.885387
2024-01-17T03:23:13.191Z,50.885448
2024-01-17T03:24:13.188Z,50.885468
2024-01-17T03:25:13.136Z,50.885517
2024-01-17T03:26:13.153Z,50.885540
2024-01-17T03:27:13.168Z,50.885529
2024-01-17T03:28:13.184Z,50.885548
2024-01-17T03:29:13.129Z,50.885521
2024-01-17T03:30:13.464Z,50.885544
2024-01-17T03:31:13.268Z,50.885540
2024-01-17T03:32:13.148Z,50.885555
2024-01-17T03:33:13.203Z,50.885475
2024-01-17T03:34:13.174Z,50.885525
2024-01-17T03:35:13.108Z,50.885544
2024-01-17T03:36:13.322Z,50.885601
2024-01-17T03:37:13.086Z,50.885624
2024-01-17T03:38:13.100Z,50.885674
2024-01-17T03:39:13.119Z,50.885777
2024-01-17T03:40:13.106Z,50.885880
2024-01-17T03:41:13.127Z,50.885818
2024-01-17T03:42:13.093Z,50.885799
2024-01-17T03:43:13.099Z,50.885876
2024-01-17T03:44:13.070Z,50.885914
2024-01-17T03:45:13.056Z,50.885960
2024-01-17T03:46:13.062Z,50.885887
2024-01-17T03:47:13.160Z,50.885834
2024-01-17T03:48:13.149Z,50.885822
2024-01-17T03:49:13.201Z,50.885750
2024-01-17T03:50:13.028Z,50.885628
2024-01-17T03:51:13.084Z,50.885666
2024-01-17T03:52:13.074Z,50.885715
2024-01-17T03:53:13.042Z,50.885731
2024-01-17T03:54:13.077Z,50.885658
2024-01-17T03:55:13.063Z,50.885628
2024-01-17T03:56:13.032Z,50.885628
2024-01-17T03:57:13.095Z,50.885620
2024-01-17T03:58:13.029Z,50.885605
2024-01-17T03:59:12.987Z,50.885609
2024-01-17T04:00:13.063Z,50.885609
2024-01-17T04:01:13.066Z,50.885593
2024-01-17T04:02:13.001Z,50.885612
2024-01-17T04:03:13.193Z,50.885586
2024-01-17T04:04:12.997Z,50.885571
2024-01-17T04:05:13.012Z,50.885574
2024-01-17T04:06:13.025Z,50.885639
2024-01-17T04:07:13.032Z,50.885635
2024-01-17T04:08:12.932Z,50.885593
2024-01-17T04:09:13.020Z,50.885590
2024-01-17T04:10:12.931Z,50.885620
2024-01-17T04:11:12.944Z,50.885616
2024-01-17T04:12:12.964Z,50.885555
2024-01-17T04:13:12.972Z,50.885571
2024-01-17T04:14:12.966Z,50.885529
2024-01-17T04:15:13.135Z,50.885601
2024-01-17T04:16:12.933Z,50.885578
2024-01-17T04:17:12.937Z,50.885551
2024-01-17T04:18:13.074Z,50.885536
2024-01-17T04:19:13.118Z,50.885601
2024-01-17T04:20:12.912Z,50.885647
2024-01-17T04:21:13.966Z,50.885654
2024-01-17T04:22:12.916Z,50.885647
2024-01-17T04:23:12.925Z,50.885662
2024-01-17T04:24:12.934Z,50.885643
2024-01-17T04:25:13.491Z,50.885654
2024-01-17T04:26:12.880Z,50.885643
2024-01-17T04:27:13.009Z,50.885651
2024-01-17T04:28:12.925Z,50.885548
2024-01-17T04:29:12.854Z,50.885517
2024-01-17T04:30:13.033Z,50.885582
2024-01-17T04:31:12.871Z,50.885605
2024-01-17T04:32:12.842Z,50.885628
2024-01-17T04:33:12.892Z,50.885529
2024-01-17T04:34:12.949Z,50.885868
2024-01-17T04:35:12.827Z,50.885715
2024-01-17T04:36:12.842Z,50.885571
2024-01-17T04:37:12.803Z,50.885746
2024-01-17T04:38:12.800Z,50.885666
2024-01-17T04:39:13.172Z,50.885857
2024-01-17T04:40:12.783Z,50.885754
2024-01-17T04:41:12.769Z,50.885674
2024-01-17T04:42:12.872Z,50.885349
2024-01-17T04:43:12.808Z,50.885525
2024-01-17T04:44:12.807Z,50.885559
2024-01-17T04:45:12.774Z,50.885406
2024-01-17T04:46:12.772Z,50.885586
2024-01-17T04:47:12.720Z,50.885735
2024-01-17T04:48:12.959Z,50.885460
2024-01-17T04:49:12.895Z,50.885853
2024-01-17T04:50:12.849Z,50.886105
2024-01-17T04:51:13.915Z,50.885532
2024-01-17T04:52:13.711Z,50.885647
2024-01-17T04:53:12.701Z,50.885918
2024-01-17T04:54:12.727Z,50.885639
2024-01-17T04:55:12.710Z,50.885681
2024-01-17T04:56:12.778Z,50.885639
2024-01-17T04:57:12.680Z,50.885593
2024-01-17T04:58:12.674Z,50.885624
2024-01-17T04:59:12.701Z,50.885666
2024-01-17T05:00:12.713Z,50.885696
2024-01-17T05:01:12.696Z,50.885555
2024-01-17T05:02:12.694Z,50.885429
2024-01-17T05:03:12.748Z,50.885441
2024-01-17T05:04:12.649Z,50.885292
2024-01-17T05:05:12.800Z,50.885471
2024-01-17T05:06:12.786Z,50.885521
2024-01-17T05:07:12.748Z,50.885529
2024-01-17T05:08:12.671Z,50.885590
2024-01-17T05:09:12.634Z,50.885578
2024-01-17T05:10:12.646Z,50.885601
2024-01-17T05:11:12.611Z,50.885624
2024-01-17T05:12:12.975Z,50.885563
2024-01-17T05:13:13.623Z,50.885536
2024-01-17T05:14:12.630Z,50.885612
2024-01-17T05:15:12.605Z,50.885624
2024-01-17T05:16:12.601Z,50.885670
2024-01-17T05:17:12.626Z,50.885555
2024-01-17T05:18:12.728Z,50.885769
2024-01-17T05:19:16.092Z,50.885654
2024-01-17T05:20:12.579Z,50.885681
2024-01-17T05:21:12.607Z,50.885639
2024-01-17T05:22:12.582Z,50.885769
2024-01-17T05:23:13.662Z,50.885654
2024-01-17T05:24:12.656Z,50.885769
2024-01-17T05:25:12.559Z,50.885849
2024-01-17T05:26:12.552Z,50.885868
2024-01-17T05:27:12.575Z,50.885986
2024-01-17T05:28:12.560Z,50.886047
2024-01-17T05:29:12.568Z,50.885963
2024-01-17T05:30:15.967Z,50.885963
2024-01-17T05:31:13.603Z,50.885963
2024-01-17T05:32:12.519Z,50.885963
2024-01-17T05:33:12.544Z,50.885963
2024-01-17T05:34:12.616Z,50.885963
2024-01-17T05:35:12.487Z,50.885963
2024-01-17T05:36:12.549Z,50.885963
2024-01-17T05:37:12.521Z,50.885963
2024-01-17T05:38:12.491Z,50.885963
2024-01-17T05:39:12.633Z,50.885963
2024-01-17T05:40:12.468Z,50.885963
2024-01-17T05:41:12.505Z,50.885963
2024-01-17T05:42:12.578Z,50.885635
2024-01-17T05:43:12.448Z,50.885853
2024-01-17T05:44:15.507Z,50.885891
2024-01-17T05:45:13.567Z,50.886124
2024-01-17T05:46:12.478Z,50.885708
2024-01-17T05:47:12.453Z,50.885654
2024-01-17T05:48:12.532Z,50.885689
2024-01-17T05:49:12.529Z,50.885670
2024-01-17T05:50:12.424Z,50.885597
2024-01-17T05:51:12.523Z,50.885612
2024-01-17T05:52:12.464Z,50.885563
2024-01-17T05:53:12.403Z,50.885635
2024-01-17T05:54:12.485Z,50.885693
2024-01-17T05:55:12.406Z,50.885654
2024-01-17T05:56:12.421Z,50.885605
2024-01-17T05:57:12.396Z,50.885693
2024-01-17T05:58:12.399Z,50.885777
2024-01-17T05:59:12.374Z,50.885738
2024-01-17T06:00:12.624Z,50.885895
2024-01-17T06:01:12.438Z,50.885811
2024-01-17T06:02:12.371Z,50.885773
2024-01-17T06:03:12.415Z,50.885632
2024-01-17T06:04:12.382Z,50.885612
2024-01-17T06:05:12.377Z,50.885555
2024-01-17T06:06:12.382Z,50.885525
2024-01-17T06:07:12.495Z,50.885521
2024-01-17T06:08:12.318Z,50.885529
2024-01-17T06:09:12.345Z,50.885559
2024-01-17T06:10:12.341Z,50.885593
2024-01-17T06:11:12.450Z,50.885586
2024-01-17T06:12:12.361Z,50.885540
2024-01-17T06:13:12.310Z,50.885571
2024-01-17T06:14:14.760Z,50.885597
2024-01-17T06:15:12.309Z,50.885532
2024-01-17T06:16:12.309Z,50.885593
2024-01-17T06:17:12.347Z,50.885601
2024-01-17T06:18:12.380Z,50.885578
2024-01-17T06:19:12.337Z,50.885555
2024-01-17T06:20:12.278Z,50.885620
2024-01-17T06:21:12.354Z,50.885681
2024-01-17T06:22:12.293Z,50.885590
2024-01-17T06:23:12.322Z,50.885666
2024-01-17T06:24:12.307Z,50.885601
2024-01-17T06:25:12.253Z,50.885525
2024-01-17T06:26:12.267Z,50.885616
2024-01-17T06:27:12.326Z,50.885582
2024-01-17T06:28:12.233Z,50.885590
2024-01-17T06:29:12.255Z,50.885578
2024-01-17T06:30:12.337Z,50.885620
2024-01-17T06:31:12.325Z,50.885605
2024-01-17T06:32:12.234Z,50.885628
2024-01-17T06:33:12.305Z,50.885593
2024-01-17T06:34:12.367Z,50.885593
2024-01-17T06:35:12.213Z,50.885620
2024-01-17T06:36:12.295Z,50.885612
2024-01-17T06:37:12.603Z,50.885593
2024-01-17T06:38:12.175Z,50.885624
2024-01-17T06:39:12.249Z,50.885643
2024-01-17T06:40:12.261Z,50.885624
2024-01-17T06:41:12.168Z,50.885601
2024-01-17T06:42:12.314Z,50.885578
2024-01-17T06:43:12.167Z,50.885582
2024-01-17T06:44:12.151Z,50.885593
2024-01-17T06:45:12.410Z,50.885590
2024-01-17T06:46:12.162Z,50.885639
2024-01-17T06:47:12.143Z,50.885620
2024-01-17T06:48:12.351Z,50.885624
2024-01-17T06:49:12.209Z,50.885639
2024-01-17T06:50:12.139Z,50.885651
2024-01-17T06:51:12.170Z,50.885670
2024-01-17T06:52:12.160Z,50.885635
2024-01-17T06:53:12.116Z,50.885582
2024-01-17T06:54:12.222Z,50.885616
2024-01-17T06:55:13.446Z,50.885620
2024-01-17T06:56:12.097Z,50.885639
2024-01-17T06:57:12.128Z,50.885620
2024-01-17T06:58:12.100Z,50.885674
2024-01-17T06:59:12.089Z,50.885593
2024-01-17T07:00:12.173Z,50.885597
2024-01-17T07:01:12.156Z,50.885597
2024-01-17T07:02:12.044Z,50.885574
2024-01-17T07:03:12.214Z,50.885609
2024-01-17T07:04:12.097Z,50.885544
2024-01-17T07:05:12.133Z,50.885551
2024-01-17T07:06:12.362Z,50.885571
2024-01-17T07:07:12.029Z,50.885635
2024-01-17T07:08:12.133Z,50.885643
2024-01-17T07:09:12.071Z,50.885628
2024-01-17T07:10:12.034Z,50.885635
2024-01-17T07:11:12.021Z,50.885571
2024-01-17T07:12:12.061Z,50.885639
2024-01-17T07:13:12.049Z,50.885593
2024-01-17T07:14:12.029Z,50.885639
2024-01-17T07:15:12.096Z,50.885635
2024-01-17T07:16:11.997Z,50.885654
2024-01-17T07:17:12.030Z,50.885601
2024-01-17T07:18:12.097Z,50.885624
2024-01-17T07:19:11.985Z,50.885635
2024-01-17T07:20:12.006Z,50.885593
2024-01-17T07:21:11.995Z,50.885712
2024-01-17T07:22:11.973Z,50.885670
2024-01-17T07:23:12.002Z,50.885590
2024-01-17T07:24:12.232Z,50.885544
2024-01-17T07:25:11.946Z,50.885559
2024-01-17T07:26:11.954Z,50.885651
2024-01-17T07:27:12.021Z,50.885639
2024-01-17T07:28:11.968Z,50.885513
2024-01-17T07:29:12.003Z,50.885487
2024-01-17T07:30:12.015Z,50.885540
2024-01-17T07:31:11.901Z,50.885647
2024-01-17T07:32:11.989Z,50.885582
2024-01-17T07:33:12.043Z,50.885635
2024-01-17T07:34:12.029Z,50.885654
2024-01-17T07:35:11.911Z,50.885635
2024-01-17T07:36:12.195Z,50.885601
2024-01-17T07:37:15.156Z,50.885654
2024-01-17T07:38:12.906Z,50.885563
2024-01-17T07:39:12.006Z,50.885605
2024-01-17T07:40:11.997Z,50.885548
2024-01-17T07:41:11.902Z,50.885551
2024-01-17T07:42:11.951Z,50.885616
2024-01-17T07:43:11.852Z,50.885715
2024-01-17T07:44:11.854Z,50.885658
2024-01-17T07:45:12.019Z,50.885628
2024-01-17T07:46:11.850Z,50.885620
2024-01-17T07:47:11.830Z,50.885582
2024-01-17T07:48:12.018Z,50.885685
2024-01-17T07:49:11.997Z,50.885670
2024-01-17T07:50:11.851Z,50.885586
2024-01-17T07:51:11.901Z,50.885571
2024-01-17T07:52:11.836Z,50.885590
2024-01-17T07:53:11.794Z,50.885654
2024-01-17T07:54:11.833Z,50.885666
2024-01-17T07:55:11.806Z,50.885647
2024-01-17T07:56:11.803Z,50.885586
2024-01-17T07:57:11.828Z,50.885612
2024-01-17T07:58:11.781Z,50.885647
2024-01-17T07:59:11.794Z,50.885624
2024-01-17T08:00:11.858Z,50.885616
2024-01-17T08:01:11.811Z,50.885601
2024-01-17T08:02:11.780Z,50.885567
2024-01-17T08:03:11.906Z,50.885612
2024-01-17T08:04:11.818Z,50.885654
2024-01-17T08:05:11.802Z,50.885658
2024-01-17T08:06:11.790Z,50.885643
2024-01-17T08:07:11.811Z,50.885628
2024-01-17T08:08:11.721Z,50.885635
2024-01-17T08:09:11.808Z,50.885639
2024-01-17T08:10:11.718Z,50.885616
2024-01-17T08:11:11.731Z,50.885651
2024-01-17T08:12:11.735Z,50.885624
2024-01-17T08:13:11.715Z,50.885639
2024-01-17T08:14:11.732Z,50.885639
2024-01-17T08:15:11.762Z,50.885647
2024-01-17T08:16:11.741Z,50.885628
2024-01-17T08:17:11.733Z,50.885601
2024-01-17T08:18:11.838Z,50.885593
2024-01-17T08:19:11.819Z,50.885632
2024-01-17T08:20:11.741Z,50.885624
2024-01-17T08:21:11.779Z,50.885609
2024-01-17T08:22:11.654Z,50.885605
2024-01-17T08:23:11.676Z,50.885609
2024-01-17T08:24:11.740Z,50.885662
2024-01-17T08:25:11.683Z,50.885635
2024-01-17T08:26:11.685Z,50.885590
2024-01-17T08:27:11.660Z,50.885597
2024-01-17T08:28:11.647Z,50.885551
2024-01-17T08:29:11.820Z,50.885635
2024-01-17T08:30:12.103Z,50.885647
2024-01-17T08:31:11.626Z,50.885601
2024-01-17T08:32:11.650Z,50.885658
2024-01-17T08:33:11.678Z,50.885639
2024-01-17T08:34:11.822Z,50.885628
2024-01-17T08:35:11.680Z,50.885681
2024-01-17T08:36:11.661Z,50.885693
2024-01-17T08:37:11.613Z,50.885689
2024-01-17T08:38:11.605Z,50.885654
2024-01-17T08:39:11.663Z,50.885647
2024-01-17T08:40:11.596Z,50.885704
2024-01-17T08:41:11.584Z,50.885742
2024-01-17T08:42:11.734Z,50.885696
2024-01-17T08:43:11.559Z,50.885693
2024-01-17T08:44:11.576Z,50.885681
2024-01-17T08:45:11.785Z,50.885658
2024-01-17T08:46:11.563Z,50.885502
2024-01-17T08:47:11.679Z,50.885548
2024-01-17T08:48:11.623Z,50.885452
2024-01-17T08:49:11.609Z,50.885620
2024-01-17T08:50:11.537Z,50.885605
2024-01-17T08:51:11.632Z,50.885590
2024-01-17T08:52:11.534Z,50.885567
2024-01-17T08:53:11.541Z,50.885590
2024-01-17T08:54:11.683Z,50.885620
2024-01-17T08:55:11.528Z,50.885624
2024-01-17T08:56:11.530Z,50.885567
2024-01-17T08:57:12.547Z,50.885635
2024-01-17T08:58:11.517Z,50.885647
2024-01-17T08:59:11.541Z,50.885704
2024-01-17T09:00:11.532Z,50.885719
2024-01-17T09:01:11.578Z,50.885670
2024-01-17T09:02:11.495Z,50.885651
2024-01-17T09:03:11.522Z,50.885719
2024-01-17T09:04:11.489Z,50.885693
2024-01-17T09:05:11.522Z,50.885616
2024-01-17T09:06:11.504Z,50.885609
2024-01-17T09:07:11.527Z,50.885635
2024-01-17T09:08:11.572Z,50.885612
2024-01-17T09:09:11.538Z,50.885624
2024-01-17T09:10:11.454Z,50.885616
2024-01-17T09:11:11.463Z,50.885635
2024-01-17T09:12:11.457Z,50.885624
2024-01-17T09:13:11.544Z,50.885628
2024-01-17T09:14:11.441Z,50.885624
2024-01-17T09:15:11.445Z,50.885605
2024-01-17T09:16:11.387Z,50.885639
2024-01-17T09:17:11.414Z,50.885609
2024-01-17T09:18:11.450Z,50.885632
2024-01-17T09:19:11.511Z,50.885685
2024-01-17T09:20:11.465Z,50.885567
2024-01-17T09:21:11.405Z,50.885658
2024-01-17T09:22:11.364Z,50.885662
2024-01-17T09:23:11.431Z,50.885616
2024-01-17T09:24:11.416Z,50.885651
2024-01-17T09:25:11.378Z,50.885628
2024-01-17T09:26:11.338Z,50.885635
2024-01-17T09:27:11.492Z,50.885643
2024-01-17T09:28:11.368Z,50.885666
2024-01-17T09:29:11.418Z,50.885624
2024-01-17T09:30:11.367Z,50.885616
2024-01-17T09:31:11.334Z,50.885601
2024-01-17T09:32:15.344Z,50.885601
2024-01-17T09:33:12.520Z,50.885597
2024-01-17T09:34:11.398Z,50.885723
2024-01-17T09:35:11.297Z,50.885700
2024-01-17T09:36:11.354Z,50.885674
2024-01-17T09:37:11.325Z,50.885582
2024-01-17T09:38:11.294Z,50.885532
2024-01-17T09:39:11.525Z,50.885662
2024-01-17T09:40:11.331Z,50.885853
2024-01-17T09:41:11.374Z,50.885696
2024-01-17T09:42:11.359Z,50.885521
2024-01-17T09:43:12.893Z,50.885582
2024-01-17T09:44:12.268Z,50.885651
2024-01-17T09:45:11.431Z,50.885628
2024-01-17T09:46:11.287Z,50.885639
2024-01-17T09:47:11.283Z,50.885513
2024-01-17T09:48:11.331Z,50.885532
2024-01-17T09:49:11.649Z,50.885586
2024-01-17T09:50:11.315Z,50.885715
2024-01-17T09:51:11.357Z,50.885723
2024-01-17T09:52:11.270Z,50.885769
2024-01-17T09:53:11.264Z,50.885693
2024-01-17T09:54:12.758Z,50.885578
2024-01-17T09:55:11.248Z,50.885574
2024-01-17T09:56:11.228Z,50.885609
2024-01-17T09:57:11.285Z,50.885612
2024-01-17T09:58:11.218Z,50.885689
2024-01-17T09:59:11.209Z,50.885635
2024-01-17T10:00:12.986Z,50.885612
2024-01-17T10:01:11.250Z,50.885658
2024-01-17T10:02:11.214Z,50.885628
2024-01-17T10:03:11.280Z,50.885632
2024-01-17T10:04:11.224Z,50.885601
2024-01-17T10:05:11.213Z,50.885593
2024-01-17T10:06:11.265Z,50.885635
2024-01-17T10:07:11.169Z,50.885624
2024-01-17T10:08:12.177Z,50.885658
2024-01-17T10:09:11.333Z,50.885666
2024-01-17T10:10:11.170Z,50.885628
2024-01-17T10:11:11.198Z,50.885632
2024-01-17T10:12:11.178Z,50.885586
2024-01-17T10:13:11.146Z,50.885578
2024-01-17T10:14:11.130Z,50.885582
2024-01-17T10:15:11.194Z,50.885597
2024-01-17T10:16:11.187Z,50.885559
2024-01-17T10:17:11.135Z,50.885628
2024-01-17T10:18:11.207Z,50.885578
2024-01-17T10:19:11.319Z,50.885654
2024-01-17T10:20:11.179Z,50.885643
2024-01-17T10:21:11.238Z,50.885658
2024-01-17T10:22:11.119Z,50.885559
2024-01-17T10:23:11.101Z,50.885567
2024-01-17T10:24:11.110Z,50.885567
2024-01-17T10:25:11.084Z,50.885559
2024-01-17T10:26:11.065Z,50.885559
2024-01-17T10:27:11.188Z,50.885563
2024-01-17T10:28:11.050Z,50.885593
2024-01-17T10:29:11.050Z,50.885571
2024-01-17T10:30:11.063Z,50.885551
2024-01-17T10:31:11.041Z,50.885582
2024-01-17T10:32:11.096Z,50.885628
2024-01-17T10:33:11.147Z,50.885620
2024-01-17T10:34:11.229Z,50.885620
2024-01-17T10:35:11.108Z,50.885612
2024-01-17T10:36:11.054Z,50.885605
2024-01-17T10:37:11.049Z,50.885609
2024-01-17T10:38:11.019Z,50.885605
2024-01-17T10:39:11.037Z,50.885609
2024-01-17T10:40:11.106Z,50.885597
2024-01-17T10:41:11.013Z,50.885601
2024-01-17T10:42:11.010Z,50.885639
2024-01-17T10:43:11.434Z,50.885658
2024-01-17T10:44:10.975Z,50.885708
2024-01-17T10:45:11.049Z,50.885632
2024-01-17T10:46:10.989Z,50.885647
2024-01-17T10:47:11.794Z,50.885635
2024-01-17T10:48:12.075Z,50.885616
2024-01-17T10:49:11.141Z,50.885677
2024-01-17T10:50:10.977Z,50.885651
2024-01-17T10:51:10.985Z,50.885605
2024-01-17T10:52:10.947Z,50.885628
2024-01-17T10:53:10.962Z,50.885605
2024-01-17T10:54:10.985Z,50.885670
2024-01-17T10:55:10.947Z,50.885643
2024-01-17T10:56:10.944Z,50.885639
2024-01-17T10:57:10.987Z,50.885616
2024-01-17T10:58:10.964Z,50.885624
2024-01-17T10:59:10.975Z,50.885635
2024-01-17T11:00:10.995Z,50.885624
2024-01-17T11:01:10.951Z,50.885715
2024-01-17T11:02:10.910Z,50.885666
2024-01-17T11:03:11.079Z,50.885597
2024-01-17T11:04:10.984Z,50.885654
2024-01-17T11:05:10.900Z,50.885723
2024-01-17T11:06:10.912Z,50.885712
2024-01-17T11:07:10.886Z,50.885658
2024-01-17T11:08:10.906Z,50.885632
2024-01-17T11:09:10.946Z,50.885654
2024-01-17T11:10:10.894Z,50.885696
2024-01-17T11:11:10.834Z,50.885674
2024-01-17T11:12:11.928Z,50.885693
2024-01-17T11:13:10.905Z,50.885689
2024-01-17T11:14:10.874Z,50.885693
2024-01-17T11:15:10.885Z,50.885654
2024-01-17T11:16:10.861Z,50.885612
2024-01-17T11:17:15.063Z,50.885662
2024-01-17T11:18:11.888Z,50.885662
2024-01-17T11:19:11.012Z,50.885639
2024-01-17T11:20:10.846Z,50.885647
2024-01-17T11:21:10.856Z,50.885628
2024-01-17T11:22:10.797Z,50.885666
2024-01-17T11:23:10.821Z,50.885628
2024-01-17T11:24:10.955Z,50.885597